sensor_id;sensor_type;location;lat;lon;timestamp;pressure;altitude;pressure_sealevel;temperature
51693;BMP280;37777;53.066;21.638;2024-03-22T00:05:06;100623.97;;;6.98
51693;BMP280;37777;53.066;21.638;2024-03-22T00:12:06;100630.94;;;6.99
51693;BMP280;37777;53.066;21.638;2024-03-22T00:19:07;100628.84;;;6.96
51693;BMP280;37777;53.066;21.638;2024-03-22T00:26:11;100625.06;;;6.97
51693;BMP280;37777;53.066;21.638;2024-03-22T00:33:11;100620.31;;;6.94
51693;BMP280;37777;53.066;21.638;2024-03-22T01:22:30;100614.97;;;6.71
51693;BMP280;37777;53.066;21.638;2024-03-22T01:29:30;100610.69;;;6.70
51693;BMP280;37777;53.066;21.638;2024-03-22T01:36:44;100618.13;;;6.64
51693;BMP280;37777;53.066;21.638;2024-03-22T01:43:44;100605.59;;;6.60
51693;BMP280;37777;53.066;21.638;2024-03-22T02:07:30;100614.22;;;6.48
51693;BMP280;37777;53.066;21.638;2024-03-22T02:22:53;100617.50;;;6.45
51693;BMP280;37777;53.066;21.638;2024-03-22T02:29:53;100615.91;;;6.44
51693;BMP280;37777;53.066;21.638;2024-03-22T02:53:38;100625.03;;;6.34
51693;BMP280;37777;53.066;21.638;2024-03-22T03:00:38;100627.03;;;6.28
51693;BMP280;37777;53.066;21.638;2024-03-22T03:07:54;100625.78;;;6.26
51693;BMP280;37777;53.066;21.638;2024-03-22T03:14:55;100605.53;;;6.28
51693;BMP280;37777;53.066;21.638;2024-03-22T03:21:57;100620.84;;;6.19
51693;BMP280;37777;53.066;21.638;2024-03-22T03:28:57;100624.09;;;6.16
51693;BMP280;37777;53.066;21.638;2024-03-22T03:35:58;100622.91;;;6.22
51693;BMP280;37777;53.066;21.638;2024-03-22T03:42:58;100631.28;;;6.21
51693;BMP280;37777;53.066;21.638;2024-03-22T03:49:59;100638.16;;;6.13
51693;BMP280;37777;53.066;21.638;2024-03-22T04:13:44;100619.53;;;6.16
51693;BMP280;37777;53.066;21.638;2024-03-22T04:20:57;100619.34;;;6.13
51693;BMP280;37777;53.066;21.638;2024-03-22T04:36:29;100617.31;;;6.10
51693;BMP280;37777;53.066;21.638;2024-03-22T04:43:29;100610.97;;;6.14
51693;BMP280;37777;53.066;21.638;2024-03-22T04:50:30;100613.97;;;6.13
51693;BMP280;37777;53.066;21.638;2024-03-22T04:57:31;100628.69;;;6.15
51693;BMP280;37777;53.066;21.638;2024-03-22T05:12:55;100619.25;;;6.18
51693;BMP280;37777;53.066;21.638;2024-03-22T05:19:55;100613.91;;;6.27
51693;BMP280;37777;53.066;21.638;2024-03-22T05:26:56;100617.53;;;6.22
51693;BMP280;37777;53.066;21.638;2024-03-22T05:33:56;100600.81;;;6.25
51693;BMP280;37777;53.066;21.638;2024-03-22T05:40:56;100588.81;;;6.31
51693;BMP280;37777;53.066;21.638;2024-03-22T05:47:57;100603.53;;;6.34
51693;BMP280;37777;53.066;21.638;2024-03-22T05:54:58;100609.09;;;6.38
51693;BMP280;37777;53.066;21.638;2024-03-22T06:01:59;100622.66;;;6.32
51693;BMP280;37777;53.066;21.638;2024-03-22T06:09:00;100623.25;;;6.29
51693;BMP280;37777;53.066;21.638;2024-03-22T06:16:04;100613.47;;;6.33
51693;BMP280;37777;53.066;21.638;2024-03-22T06:23:04;100613.03;;;6.40
51693;BMP280;37777;53.066;21.638;2024-03-22T06:30:05;100612.28;;;6.40
51693;BMP280;37777;53.066;21.638;2024-03-22T06:37:06;100620.22;;;6.45
51693;BMP280;37777;53.066;21.638;2024-03-22T06:44:06;100625.16;;;6.51
51693;BMP280;37777;53.066;21.638;2024-03-22T06:59:31;100611.94;;;6.64
51693;BMP280;37777;53.066;21.638;2024-03-22T07:06:31;100611.94;;;6.64
51693;BMP280;37777;53.066;21.638;2024-03-22T07:13:32;100611.22;;;6.81
51693;BMP280;37777;53.066;21.638;2024-03-22T07:20:33;100610.78;;;6.88
51693;BMP280;37777;53.066;21.638;2024-03-22T07:44:31;100588.38;;;7.01
51693;BMP280;37777;53.066;21.638;2024-03-22T07:51:31;100582.06;;;7.14
51693;BMP280;37777;53.066;21.638;2024-03-22T08:06:54;100593.03;;;7.35
51693;BMP280;37777;53.066;21.638;2024-03-22T08:13:54;100597.63;;;7.44
51693;BMP280;37777;53.066;21.638;2024-03-22T08:21:02;100585.75;;;7.45
51693;BMP280;37777;53.066;21.638;2024-03-22T08:28:03;100578.78;;;7.44
51693;BMP280;37777;53.066;21.638;2024-03-22T08:43:26;100557.72;;;7.37
51693;BMP280;37777;53.066;21.638;2024-03-22T08:50:28;100557.91;;;7.41
51693;BMP280;37777;53.066;21.638;2024-03-22T08:57:28;100558.19;;;7.48
51693;BMP280;37777;53.066;21.638;2024-03-22T09:04:32;100554.75;;;7.73
51693;BMP280;37777;53.066;21.638;2024-03-22T09:11:32;100554.69;;;8.08
51693;BMP280;37777;53.066;21.638;2024-03-22T09:18:52;100544.91;;;8.51
51693;BMP280;37777;53.066;21.638;2024-03-22T09:25:52;100541.91;;;8.35
51693;BMP280;37777;53.066;21.638;2024-03-22T09:32:53;100522.03;;;8.57
51693;BMP280;37777;53.066;21.638;2024-03-22T09:39:53;100514.44;;;8.80
51693;BMP280;37777;53.066;21.638;2024-03-22T09:46:54;100515.47;;;8.67
51693;BMP280;37777;53.066;21.638;2024-03-22T09:53:56;100513.09;;;8.66
51693;BMP280;37777;53.066;21.638;2024-03-22T10:00:57;100500.88;;;8.68
51693;BMP280;37777;53.066;21.638;2024-03-22T10:08:01;100492.59;;;8.73
51693;BMP280;37777;53.066;21.638;2024-03-22T10:15:02;100474.69;;;8.90
51693;BMP280;37777;53.066;21.638;2024-03-22T10:22:05;100478.13;;;8.99
51693;BMP280;37777;53.066;21.638;2024-03-22T10:29:08;100472.66;;;9.08
51693;BMP280;37777;53.066;21.638;2024-03-22T10:36:10;100465.78;;;8.98
51693;BMP280;37777;53.066;21.638;2024-03-22T10:43:10;100456.81;;;9.06
51693;BMP280;37777;53.066;21.638;2024-03-22T10:50:11;100466.94;;;9.09
51693;BMP280;37777;53.066;21.638;2024-03-22T10:57:14;100464.19;;;8.97
51693;BMP280;37777;53.066;21.638;2024-03-22T11:04:17;100458.44;;;8.98
51693;BMP280;37777;53.066;21.638;2024-03-22T11:11:18;100437.19;;;8.97
51693;BMP280;37777;53.066;21.638;2024-03-22T11:18:21;100421.28;;;9.04
51693;BMP280;37777;53.066;21.638;2024-03-22T11:25:22;100419.41;;;8.96
51693;BMP280;37777;53.066;21.638;2024-03-22T11:32:22;100406.69;;;8.96
51693;BMP280;37777;53.066;21.638;2024-03-22T11:39:23;100402.09;;;8.85
51693;BMP280;37777;53.066;21.638;2024-03-22T11:46:24;100395.72;;;8.80
51693;BMP280;37777;53.066;21.638;2024-03-22T11:53:25;100401.38;;;8.67
51693;BMP280;37777;53.066;21.638;2024-03-22T12:00:25;100396.19;;;8.61
51693;BMP280;37777;53.066;21.638;2024-03-22T12:07:27;100390.19;;;8.56
51693;BMP280;37777;53.066;21.638;2024-03-22T12:14:28;100382.47;;;8.54
51693;BMP280;37777;53.066;21.638;2024-03-22T12:21:29;100364.94;;;8.60
51693;BMP280;37777;53.066;21.638;2024-03-22T12:28:30;100357.56;;;8.70
51693;BMP280;37777;53.066;21.638;2024-03-22T12:35:31;100343.06;;;8.62
51693;BMP280;37777;53.066;21.638;2024-03-22T12:50:54;100330.22;;;8.59
51693;BMP280;37777;53.066;21.638;2024-03-22T12:57:57;100325.47;;;8.56
51693;BMP280;37777;53.066;21.638;2024-03-22T13:04:57;100316.56;;;8.55
51693;BMP280;37777;53.066;21.638;2024-03-22T13:12:07;100305.94;;;8.59
51693;BMP280;37777;53.066;21.638;2024-03-22T13:19:08;100282.56;;;8.84
51693;BMP280;37777;53.066;21.638;2024-03-22T13:26:12;100277.97;;;8.97
51693;BMP280;37777;53.066;21.638;2024-03-22T13:33:13;100264.81;;;8.95
51693;BMP280;37777;53.066;21.638;2024-03-22T13:40:13;100249.47;;;8.87
51693;BMP280;37777;53.066;21.638;2024-03-22T13:47:15;100254.03;;;8.95
51693;BMP280;37777;53.066;21.638;2024-03-22T14:02:38;100216.47;;;8.90
51693;BMP280;37777;53.066;21.638;2024-03-22T14:09:38;100218.47;;;8.81
51693;BMP280;37777;53.066;21.638;2024-03-22T14:16:41;100202.03;;;8.74
51693;BMP280;37777;53.066;21.638;2024-03-22T14:32:23;100186.66;;;8.74
51693;BMP280;37777;53.066;21.638;2024-03-22T14:39:24;100194.41;;;8.63
51693;BMP280;37777;53.066;21.638;2024-03-22T14:46:24;100186.34;;;8.55
51693;BMP280;37777;53.066;21.638;2024-03-22T14:53:26;100180.22;;;8.54
51693;BMP280;37777;53.066;21.638;2024-03-22T15:00:26;100162.09;;;8.55
51693;BMP280;37777;53.066;21.638;2024-03-22T15:15:57;100144.78;;;8.56
51693;BMP280;37777;53.066;21.638;2024-03-22T15:22:58;100137.69;;;8.51
51693;BMP280;37777;53.066;21.638;2024-03-22T15:29:59;100125.47;;;8.54
51693;BMP280;37777;53.066;21.638;2024-03-22T15:45:21;100118.38;;;8.49
51693;BMP280;37777;53.066;21.638;2024-03-22T15:52:23;100107.94;;;8.48
51693;BMP280;37777;53.066;21.638;2024-03-22T15:59:27;100099.50;;;8.49
51693;BMP280;37777;53.066;21.638;2024-03-22T16:06:27;100092.41;;;8.44
51693;BMP280;37777;53.066;21.638;2024-03-22T16:13:28;100089.69;;;8.44
51693;BMP280;37777;53.066;21.638;2024-03-22T16:20:29;100075.88;;;8.46
51693;BMP280;37777;53.066;21.638;2024-03-22T16:27:29;100072.41;;;8.45
51693;BMP280;37777;53.066;21.638;2024-03-22T16:34:30;100082.78;;;8.43
51693;BMP280;37777;53.066;21.638;2024-03-22T16:41:30;100076.44;;;8.39
51693;BMP280;37777;53.066;21.638;2024-03-22T16:48:31;100062.97;;;8.39
51693;BMP280;37777;53.066;21.638;2024-03-22T16:55:31;100053.31;;;8.38
51693;BMP280;37777;53.066;21.638;2024-03-22T17:02:32;100039.72;;;8.35
51693;BMP280;37777;53.066;21.638;2024-03-22T17:09:32;100035.22;;;8.39
51693;BMP280;37777;53.066;21.638;2024-03-22T17:16:33;100029.06;;;8.38
51693;BMP280;37777;53.066;21.638;2024-03-22T17:23:34;100037.34;;;8.33
51693;BMP280;37777;53.066;21.638;2024-03-22T17:30:35;100019.63;;;8.32
51693;BMP280;37777;53.066;21.638;2024-03-22T17:37:36;100013.53;;;8.35
51693;BMP280;37777;53.066;21.638;2024-03-22T17:44:49;100007.34;;;8.35
51693;BMP280;37777;53.066;21.638;2024-03-22T17:51:50;99999.59;;;8.33
51693;BMP280;37777;53.066;21.638;2024-03-22T17:58:50;99986.50;;;8.32
51693;BMP280;37777;53.066;21.638;2024-03-22T18:05:51;99971.09;;;8.32
51693;BMP280;37777;53.066;21.638;2024-03-22T18:12:57;99980.06;;;8.36
51693;BMP280;37777;53.066;21.638;2024-03-22T18:19:58;99965.00;;;8.35
51693;BMP280;37777;53.066;21.638;2024-03-22T18:35:42;99963.91;;;8.36
51693;BMP280;37777;53.066;21.638;2024-03-22T18:42:43;99956.91;;;8.35
51693;BMP280;37777;53.066;21.638;2024-03-22T18:49:43;99948.97;;;8.39
51693;BMP280;37777;53.066;21.638;2024-03-22T18:56:44;99926.72;;;8.42
51693;BMP280;37777;53.066;21.638;2024-03-22T19:03:45;99921.34;;;8.42
51693;BMP280;37777;53.066;21.638;2024-03-22T19:10:46;99901.69;;;8.41
51693;BMP280;37777;53.066;21.638;2024-03-22T19:17:46;99907.53;;;8.43
51693;BMP280;37777;53.066;21.638;2024-03-22T19:24:47;99897.06;;;8.42
51693;BMP280;37777;53.066;21.638;2024-03-22T19:31:48;99882.09;;;8.44
51693;BMP280;37777;53.066;21.638;2024-03-22T19:38:48;99866.63;;;8.41
51693;BMP280;37777;53.066;21.638;2024-03-22T19:45:55;99875.19;;;8.43
51693;BMP280;37777;53.066;21.638;2024-03-22T19:53:00;99870.91;;;8.42
51693;BMP280;37777;53.066;21.638;2024-03-22T20:00:19;99867.09;;;8.43
51693;BMP280;37777;53.066;21.638;2024-03-22T20:07:20;99852.81;;;8.43
51693;BMP280;37777;53.066;21.638;2024-03-22T20:14:20;99838.56;;;8.42
51693;BMP280;37777;53.066;21.638;2024-03-22T20:21:21;99838.31;;;8.48
51693;BMP280;37777;53.066;21.638;2024-03-22T20:28:21;99820.22;;;8.48
51693;BMP280;37777;53.066;21.638;2024-03-22T20:35:22;99826.97;;;8.54
